Time;durP1;ratioP1;P1;durP2;ratioP2;P2;SDS_P1;SDS_P2;PMS_P1;PMS_P2;Temp;Humidity;BMP_temperature;BMP_pressure;BME280_temperature;BME280_humidity;BME280_pressure;Samples;Min_cycle;Max_cycle;Signal;HPM_P1;HPM_P2
2023/02/13 00:01:01;;;;;;;33.40;24.03;;;;;;;;;;5012208;28;20739;-81
2023/02/13 00:03:27;;;;;;;33.40;23.30;;;;;;;;;;5015934;28;20295;-82
2023/02/13 00:05:52;;;;;;;34.60;23.37;;;;;;;;;;5027924;28;20354;-80
2023/02/13 00:08:18;;;;;;;28.23;22.57;;;;;;;;;;5012168;28;21010;-80
2023/02/13 00:10:46;;;;;;;31.70;23.07;;;;;;;;;;4998410;28;20231;-81
2023/02/13 00:13:11;;;;;;;29.70;22.17;;;;;;;;;;5011648;28;20220;-82
2023/02/13 00:15:39;;;;;;;34.27;23.50;;;;;;;;;;5000157;28;20223;-79
2023/02/13 00:18:04;;;;;;;30.07;21.77;;;;;;;;;;5010297;28;20248;-80
2023/02/13 00:20:32;;;;;;;32.27;23.20;;;;;;;;;;4998722;28;20228;-81
2023/02/13 00:22:58;;;;;;;31.23;22.50;;;;;;;;;;5014281;28;20232;-80
2023/02/13 00:25:24;;;;;;;31.30;21.77;;;;;;;;;;5006802;28;20690;-81
2023/02/13 00:27:52;;;;;;;27.03;20.57;;;;;;;;;;5015082;28;20551;-82
2023/02/13 00:30:21;;;;;;;28.27;19.87;;;;;;;;;;5032150;28;20228;-82
2023/02/13 00:32:47;;;;;;;30.43;21.60;;;;;;;;;;5012010;28;20220;-82
2023/02/13 00:35:12;;;;;;;31.60;21.13;;;;;;;;;;5030388;28;20225;-81
2023/02/13 00:37:38;;;;;;;25.83;20.67;;;;;;;;;;5001894;28;20229;-80
2023/02/13 00:40:04;;;;;;;26.70;20.70;;;;;;;;;;5000600;28;20222;-79
2023/02/13 00:42:32;;;;;;;25.93;20.37;;;;;;;;;;5010873;28;20221;-80
2023/02/13 00:44:57;;;;;;;24.43;19.90;;;;;;;;;;5028022;28;20217;-80
2023/02/13 00:47:26;;;;;;;23.53;19.07;;;;;;;;;;4997871;28;20225;-81
2023/02/13 00:49:54;;;;;;;22.80;19.03;;;;;;;;;;5009957;28;20625;-79
2023/02/13 00:52:19;;;;;;;24.67;19.83;;;;;;;;;;5007940;28;20323;-81
2023/02/13 00:54:46;;;;;;;23.90;19.13;;;;;;;;;;5011732;28;20220;-80
2023/02/13 00:57:12;;;;;;;22.87;18.90;;;;;;;;;;5007558;28;20586;-79
2023/02/13 00:59:40;;;;;;;25.20;19.93;;;;;;;;;;5032472;28;20216;-79
2023/02/13 01:02:08;;;;;;;22.80;18.17;;;;;;;;;;5008648;28;20221;-79
2023/02/13 01:04:34;;;;;;;22.37;19.10;;;;;;;;;;5031008;28;20243;-79
2023/02/13 01:06:59;;;;;;;23.20;18.70;;;;;;;;;;5012381;28;20220;-81
2023/02/13 01:09:25;;;;;;;21.07;18.87;;;;;;;;;;5013222;28;20217;-81
2023/02/13 01:11:50;;;;;;;24.67;19.00;;;;;;;;;;4973751;28;20686;-82
2023/02/13 01:14:21;;;;;;;22.87;19.30;;;;;;;;;;5014743;28;20239;-81
2023/02/13 01:16:49;;;;;;;24.27;20.70;;;;;;;;;;5017752;28;20215;-80
2023/02/13 01:19:15;;;;;;;27.93;20.60;;;;;;;;;;4997734;28;20302;-80
2023/02/13 01:21:43;;;;;;;25.70;19.70;;;;;;;;;;5031015;28;20211;-80
2023/02/13 01:24:09;;;;;;;23.50;20.37;;;;;;;;;;5029435;28;20229;-81
2023/02/13 01:26:34;;;;;;;24.67;20.77;;;;;;;;;;5010711;28;20243;-82
2023/02/13 01:29:02;;;;;;;26.97;20.20;;;;;;;;;;4995452;28;20219;-80
2023/02/13 01:31:31;;;;;;;25.13;20.60;;;;;;;;;;5000469;28;20720;-80
2023/02/13 01:34:01;;;;;;;26.70;21.33;;;;;;;;;;5032350;28;20220;-82
2023/02/13 01:36:26;;;;;;;24.57;20.83;;;;;;;;;;5013213;28;20212;-80
2023/02/13 01:38:54;;;;;;;27.23;21.53;;;;;;;;;;5002324;28;20750;-82
2023/02/13 01:41:20;;;;;;;25.57;20.80;;;;;;;;;;5014176;28;20219;-81
2023/02/13 01:43:52;;;;;;;23.20;19.63;;;;;;;;;;5002933;28;20212;-82
2023/02/13 01:46:38;;;;;;;24.67;20.13;;;;;;;;;;5016592;28;20213;-80
2023/02/13 01:49:09;;;;;;;23.13;19.50;;;;;;;;;;5018009;28;20212;-82
2023/02/13 01:51:34;;;;;;;23.90;18.87;;;;;;;;;;5000815;28;20222;-81
2023/02/13 01:54:05;;;;;;;21.17;18.87;;;;;;;;;;5017453;28;20216;-81
2023/02/13 01:56:31;;;;;;;21.43;18.93;;;;;;;;;;5044052;28;20891;-82
2023/02/13 01:59:02;;;;;;;20.30;18.13;;;;;;;;;;5062070;28;20489;-79
2023/02/13 02:01:28;;;;;;;21.17;17.27;;;;;;;;;;5042797;28;20229;-82
2023/02/13 02:03:59;;;;;;;21.27;18.13;;;;;;;;;;4994167;28;20296;-82
2023/02/13 02:06:34;;;;;;;22.10;18.00;;;;;;;;;;5044807;28;20289;-82
2023/02/13 02:09:02;;;;;;;23.00;17.23;;;;;;;;;;5009280;28;20227;-81
2023/02/13 02:11:38;;;;;;;16.57;14.87;;;;;;;;;;5015399;28;20225;-82
2023/02/13 02:14:08;;;;;;;15.90;13.93;;;;;;;;;;5028320;28;20232;-78
2023/02/13 02:16:33;;;;;;;17.50;14.87;;;;;;;;;;5003259;28;20358;-80
2023/02/13 02:19:03;;;;;;;16.50;14.53;;;;;;;;;;5016951;28;20224;-82
2023/02/13 02:21:40;;;;;;;16.80;15.00;;;;;;;;;;5017453;28;20717;-81
2023/02/13 02:24:30;;;;;;;15.50;13.83;;;;;;;;;;5056148;28;20731;-82
2023/02/13 02:27:04;;;;;;;15.13;13.53;;;;;;;;;;5057963;28;20223;-81
2023/02/13 02:29:36;;;;;;;15.80;13.40;;;;;;;;;;5045584;28;20243;-82
2023/02/13 02:32:14;;;;;;;14.80;13.33;;;;;;;;;;5061170;28;20227;-81
2023/02/13 02:34:53;;;;;;;16.37;13.83;;;;;;;;;;5055472;28;20228;-79
2023/02/13 02:37:28;;;;;;;15.37;12.90;;;;;;;;;;5010651;28;20681;-79
2023/02/13 02:40:02;;;;;;;14.17;11.53;;;;;;;;;;5053902;28;20724;-79
2023/02/13 02:42:37;;;;;;;14.07;11.63;;;;;;;;;;5043974;28;20673;-79
2023/02/13 02:45:36;;;;;;;12.93;10.93;;;;;;;;;;5051037;28;20255;-79
2023/02/13 02:51:03;;;;;;;10.80;9.70;;;;;;;;;;5005134;28;20220;-81
2023/02/13 02:53:56;;;;;;;10.53;9.53;;;;;;;;;;4998419;28;20216;-80
2023/02/13 02:56:35;;;;;;;11.17;10.00;;;;;;;;;;5055356;28;20223;-80
2023/02/13 03:07:34;;;;;;;11.50;10.23;;;;;;;;;;5006862;28;20224;-82
2023/02/13 03:24:08;;;;;;;10.27;9.13;;;;;;;;;;5027267;28;20231;-82
2023/02/13 03:26:55;;;;;;;13.87;10.87;;;;;;;;;;5016608;28;21400;-82
2023/02/13 03:32:29;;;;;;;12.13;10.93;;;;;;;;;;5019577;28;20232;-83
2023/02/13 03:38:03;;;;;;;12.83;11.20;;;;;;;;;;5013019;28;20224;-82
2023/02/13 03:43:44;;;;;;;12.93;11.63;;;;;;;;;;5034381;28;20223;-81
2023/02/13 03:46:09;;;;;;;12.70;11.40;;;;;;;;;;5000314;28;20225;-81
2023/02/13 03:51:57;;;;;;;13.10;11.70;;;;;;;;;;5016543;28;20283;-81
2023/02/13 04:00:29;;;;;;;18.17;12.30;;;;;;;;;;5015338;28;20223;-82
2023/02/13 04:03:04;;;;;;;13.33;11.67;;;;;;;;;;5016302;28;20220;-82
2023/02/13 04:05:33;;;;;;;12.13;10.53;;;;;;;;;;5017855;28;20267;-81
2023/02/13 04:08:03;;;;;;;12.03;10.83;;;;;;;;;;5016611;28;20204;-81
2023/02/13 04:10:32;;;;;;;15.03;11.70;;;;;;;;;;5012061;28;20235;-80
2023/02/13 04:13:09;;;;;;;13.10;11.23;;;;;;;;;;5006619;28;20219;-82
2023/02/13 04:16:10;;;;;;;13.53;10.70;;;;;;;;;;5016730;28;20283;-82
2023/02/13 04:18:38;;;;;;;11.43;10.33;;;;;;;;;;5015688;28;20250;-81
2023/02/13 04:21:03;;;;;;;12.23;10.93;;;;;;;;;;5000761;28;20215;-81
2023/02/13 04:23:29;;;;;;;13.73;11.87;;;;;;;;;;5026257;28;20220;-79
2023/02/13 04:25:57;;;;;;;12.67;11.37;;;;;;;;;;5034739;28;20713;-79
2023/02/13 04:28:25;;;;;;;12.27;10.97;;;;;;;;;;5013807;28;20381;-81
2023/02/13 04:30:51;;;;;;;14.67;11.10;;;;;;;;;;5017524;28;20240;-81
2023/02/13 04:33:16;;;;;;;12.63;11.37;;;;;;;;;;5058574;28;20219;-82
2023/02/13 04:35:47;;;;;;;13.40;11.57;;;;;;;;;;5025711;28;20222;-81
2023/02/13 04:38:19;;;;;;;11.70;10.47;;;;;;;;;;5000488;28;20701;-80
2023/02/13 04:40:47;;;;;;;12.70;10.67;;;;;;;;;;5037463;28;20231;-83
2023/02/13 04:43:17;;;;;;;13.10;11.70;;;;;;;;;;5017920;28;20224;-83
2023/02/13 04:45:42;;;;;;;13.03;11.83;;;;;;;;;;5021136;28;20216;-83
2023/02/13 04:48:08;;;;;;;15.20;11.70;;;;;;;;;;5009043;28;20745;-83
2023/02/13 04:50:36;;;;;;;15.33;12.00;;;;;;;;;;5002356;28;20231;-82
2023/02/13 04:53:04;;;;;;;14.83;12.17;;;;;;;;;;5033855;28;20216;-81
2023/02/13 04:55:32;;;;;;;13.83;12.20;;;;;;;;;;4998198;28;20716;-80
2023/02/13 04:57:58;;;;;;;13.33;11.90;;;;;;;;;;5005935;28;20225;-81
2023/02/13 05:00:26;;;;;;;14.33;12.47;;;;;;;;;;5010382;28;20220;-81
2023/02/13 05:02:52;;;;;;;14.23;12.40;;;;;;;;;;5005144;28;20224;-82
2023/02/13 05:05:18;;;;;;;14.63;13.13;;;;;;;;;;5004487;28;20764;-81
2023/02/13 05:07:48;;;;;;;14.00;12.60;;;;;;;;;;5019587;28;20219;-83
2023/02/13 05:10:15;;;;;;;18.17;13.17;;;;;;;;;;4996865;28;20601;-83
2023/02/13 05:12:41;;;;;;;14.50;13.00;;;;;;;;;;5029182;28;20219;-83
2023/02/13 05:15:07;;;;;;;13.70;12.30;;;;;;;;;;5001742;28;20228;-82
2023/02/13 05:17:34;;;;;;;15.30;12.90;;;;;;;;;;4997534;28;20248;-81
2023/02/13 05:20:02;;;;;;;16.27;13.97;;;;;;;;;;5021290;28;20820;-83
2023/02/13 05:25:12;;;;;;;12.97;11.63;;;;;;;;;;5012339;28;20224;-83
2023/02/13 05:27:42;;;;;;;15.63;12.23;;;;;;;;;;5047145;28;20278;-83
2023/02/13 05:30:11;;;;;;;15.93;13.90;;;;;;;;;;5066906;28;20654;-83
2023/02/13 05:32:41;;;;;;;18.90;13.27;;;;;;;;;;5020089;28;20220;-83
2023/02/13 05:35:08;;;;;;;15.20;13.13;;;;;;;;;;5054623;28;20284;-79
2023/02/13 05:37:34;;;;;;;17.20;12.63;;;;;;;;;;5018708;28;20691;-81
2023/02/13 05:40:02;;;;;;;15.33;13.50;;;;;;;;;;5001384;28;20212;-82
2023/02/13 05:42:30;;;;;;;17.13;13.03;;;;;;;;;;5037614;28;20227;-83
2023/02/13 05:44:58;;;;;;;14.23;12.60;;;;;;;;;;5010891;28;20238;-82
2023/02/13 05:47:26;;;;;;;13.50;12.13;;;;;;;;;;5013088;28;20594;-83
2023/02/13 05:49:51;;;;;;;12.20;10.90;;;;;;;;;;5022593;28;20219;-82
2023/02/13 05:52:19;;;;;;;16.50;12.83;;;;;;;;;;5022117;28;20228;-82
2023/02/13 05:54:47;;;;;;;13.53;11.10;;;;;;;;;;5028079;28;20681;-82
2023/02/13 05:57:12;;;;;;;14.23;12.43;;;;;;;;;;5016268;28;20225;-81
2023/02/13 05:59:40;;;;;;;13.30;11.10;;;;;;;;;;5029725;28;20362;-83
2023/02/13 06:02:11;;;;;;;12.50;11.00;;;;;;;;;;5043090;28;20224;-81
2023/02/13 06:04:36;;;;;;;12.30;11.00;;;;;;;;;;5030184;28;20248;-80
2023/02/13 06:07:04;;;;;;;15.73;11.23;;;;;;;;;;5033603;28;20265;-82
2023/02/13 06:09:29;;;;;;;13.17;11.47;;;;;;;;;;5001271;28;21001;-81
2023/02/13 06:11:55;;;;;;;14.13;12.27;;;;;;;;;;5004138;28;20224;-82
2023/02/13 06:14:23;;;;;;;27.37;14.07;;;;;;;;;;5051143;28;20242;-82
2023/02/13 06:16:50;;;;;;;14.30;12.60;;;;;;;;;;5018843;28;20288;-81
2023/02/13 06:19:16;;;;;;;17.90;13.33;;;;;;;;;;5018355;28;20228;-83
2023/02/13 06:21:41;;;;;;;16.47;14.00;;;;;;;;;;5004287;28;20279;-80
2023/02/13 06:24:09;;;;;;;16.37;13.87;;;;;;;;;;5027878;28;21058;-80
2023/02/13 06:26:34;;;;;;;16.63;13.33;;;;;;;;;;5015727;28;20223;-82
2023/02/13 06:29:00;;;;;;;19.87;13.70;;;;;;;;;;5007222;28;20216;-81
2023/02/13 06:31:32;;;;;;;16.30;13.80;;;;;;;;;;4999455;28;20226;-79
2023/02/13 06:34:00;;;;;;;14.57;12.83;;;;;;;;;;4994273;28;20771;-82
2023/02/13 06:36:28;;;;;;;18.23;16.03;;;;;;;;;;5015935;28;20352;-81
2023/02/13 06:38:54;;;;;;;15.57;13.87;;;;;;;;;;5029000;28;20598;-80
2023/02/13 06:41:22;;;;;;;18.00;14.37;;;;;;;;;;5018888;28;20256;-80
2023/02/13 06:43:50;;;;;;;15.63;13.67;;;;;;;;;;5016769;28;20262;-79
2023/02/13 06:46:16;;;;;;;15.97;13.90;;;;;;;;;;5012362;28;20221;-82
2023/02/13 06:48:46;;;;;;;16.90;13.73;;;;;;;;;;5037625;28;20692;-81
2023/02/13 06:51:14;;;;;;;19.17;14.60;;;;;;;;;;4999172;28;20283;-82
2023/02/13 06:53:39;;;;;;;16.37;14.60;;;;;;;;;;5027787;28;20224;-81
2023/02/13 06:56:05;;;;;;;16.97;14.70;;;;;;;;;;4974388;28;20232;-80
2023/02/13 06:58:32;;;;;;;15.73;14.13;;;;;;;;;;5011597;28;20240;-81
2023/02/13 07:00:58;;;;;;;14.63;12.93;;;;;;;;;;5005663;28;20225;-80
2023/02/13 07:03:28;;;;;;;17.30;14.17;;;;;;;;;;4996647;28;20227;-81
2023/02/13 07:05:59;;;;;;;14.90;13.07;;;;;;;;;;5012654;28;20224;-80
2023/02/13 07:08:24;;;;;;;17.93;14.77;;;;;;;;;;5012224;28;20263;-80
2023/02/13 07:10:50;;;;;;;19.93;14.10;;;;;;;;;;5046378;28;20292;-81
2023/02/13 07:13:18;;;;;;;16.13;14.40;;;;;;;;;;4999173;28;20216;-80
2023/02/13 07:15:45;;;;;;;21.23;18.00;;;;;;;;;;5015147;28;20230;-80
2023/02/13 07:18:14;;;;;;;17.37;15.30;;;;;;;;;;5008875;28;20221;-82
2023/02/13 07:20:42;;;;;;;16.73;14.83;;;;;;;;;;5000952;28;20287;-80
2023/02/13 07:23:07;;;;;;;21.67;16.57;;;;;;;;;;5018236;28;20586;-80
2023/02/13 07:25:33;;;;;;;22.67;16.60;;;;;;;;;;4992155;28;20242;-80
2023/02/13 07:28:05;;;;;;;20.90;16.33;;;;;;;;;;5042186;28;20212;-80
2023/02/13 07:30:31;;;;;;;19.80;16.33;;;;;;;;;;5010654;28;20270;-81
2023/02/13 07:33:03;;;;;;;24.60;17.20;;;;;;;;;;5019141;28;20216;-81
2023/02/13 07:35:31;;;;;;;22.40;16.43;;;;;;;;;;5026650;28;20274;-81
2023/02/13 07:38:01;;;;;;;18.57;16.53;;;;;;;;;;5035665;28;20219;-80
2023/02/13 07:40:29;;;;;;;19.40;16.07;;;;;;;;;;5020354;28;20236;-79
2023/02/13 07:42:57;;;;;;;21.57;17.93;;;;;;;;;;5015866;28;20223;-79
2023/02/13 07:45:23;;;;;;;24.23;18.93;;;;;;;;;;5000335;28;20291;-79
2023/02/13 07:47:48;;;;;;;23.00;18.50;;;;;;;;;;5016577;28;20569;-83
2023/02/13 07:50:14;;;;;;;21.93;18.17;;;;;;;;;;5000805;28;20767;-81
2023/02/13 07:52:39;;;;;;;24.50;18.80;;;;;;;;;;5012526;28;20243;-81
2023/02/13 07:55:05;;;;;;;25.73;19.90;;;;;;;;;;4998566;28;20273;-83
2023/02/13 07:57:33;;;;;;;27.53;18.40;;;;;;;;;;4999150;28;20275;-80
2023/02/13 08:00:01;;;;;;;24.07;18.43;;;;;;;;;;5023902;28;20223;-82
2023/02/13 08:02:37;;;;;;;22.77;18.60;;;;;;;;;;5015363;28;20270;-79
2023/02/13 08:05:02;;;;;;;34.90;21.30;;;;;;;;;;5015077;28;20723;-81
2023/02/13 08:07:30;;;;;;;34.80;22.30;;;;;;;;;;5025723;28;20748;-79
2023/02/13 08:12:40;;;;;;;26.90;20.97;;;;;;;;;;5006601;28;20272;-81
2023/02/13 08:15:10;;;;;;;24.93;20.70;;;;;;;;;;5000597;28;20432;-80
2023/02/13 08:17:35;;;;;;;28.00;21.53;;;;;;;;;;4991706;28;20216;-80
2023/02/13 08:20:01;;;;;;;26.50;20.07;;;;;;;;;;5013969;28;20697;-80
2023/02/13 08:22:26;;;;;;;29.10;20.83;;;;;;;;;;5054829;28;20224;-79
2023/02/13 08:24:53;;;;;;;26.03;20.93;;;;;;;;;;5001443;28;20212;-80
2023/02/13 08:27:18;;;;;;;24.57;19.70;;;;;;;;;;5015293;28;20315;-82
2023/02/13 08:29:47;;;;;;;24.90;20.70;;;;;;;;;;4992790;28;20240;-83
2023/02/13 08:32:13;;;;;;;27.10;20.57;;;;;;;;;;5041332;28;20224;-81
2023/02/13 08:34:38;;;;;;;25.70;20.13;;;;;;;;;;5019580;28;20278;-80
2023/02/13 08:37:04;;;;;;;26.87;20.83;;;;;;;;;;5006693;28;20598;-81
2023/02/13 08:39:29;;;;;;;24.60;20.30;;;;;;;;;;4995464;28;20233;-80
2023/02/13 08:41:55;;;;;;;24.53;20.07;;;;;;;;;;5025896;28;21031;-79
2023/02/13 08:44:20;;;;;;;22.47;20.07;;;;;;;;;;5004667;28;20209;-79
2023/02/13 08:46:46;;;;;;;29.73;20.57;;;;;;;;;;5043094;28;20243;-80
2023/02/13 08:49:13;;;;;;;25.03;20.33;;;;;;;;;;5045384;28;20697;-82
2023/02/13 08:51:39;;;;;;;23.83;20.17;;;;;;;;;;5030023;28;20262;-80
2023/02/13 08:54:07;;;;;;;26.57;21.23;;;;;;;;;;5021927;28;20231;-81
2023/02/13 08:56:33;;;;;;;27.90;20.77;;;;;;;;;;5011828;28;20282;-81
2023/02/13 08:58:59;;;;;;;24.87;19.63;;;;;;;;;;5000989;28;20228;-81
2023/02/13 09:01:27;;;;;;;25.47;20.73;;;;;;;;;;4999100;28;20223;-80
2023/02/13 09:03:53;;;;;;;25.07;21.53;;;;;;;;;;5031529;28;20216;-81
2023/02/13 09:06:18;;;;;;;28.20;21.63;;;;;;;;;;4995602;28;20227;-79
2023/02/13 09:08:44;;;;;;;26.97;20.67;;;;;;;;;;5029642;28;20224;-79
2023/02/13 09:11:12;;;;;;;25.27;20.77;;;;;;;;;;5016275;28;20239;-80
2023/02/13 09:13:40;;;;;;;25.93;21.67;;;;;;;;;;5055431;28;20224;-79
2023/02/13 09:16:06;;;;;;;28.73;22.53;;;;;;;;;;5029823;28;20228;-80
2023/02/13 09:18:36;;;;;;;25.50;22.77;;;;;;;;;;5015819;28;20243;-79
2023/02/13 09:21:04;;;;;;;25.90;21.80;;;;;;;;;;5008545;28;20220;-80
2023/02/13 09:23:33;;;;;;;26.00;21.90;;;;;;;;;;5039890;28;20252;-79
2023/02/13 09:26:02;;;;;;;25.30;22.07;;;;;;;;;;4997727;28;20227;-81
2023/02/13 09:28:31;;;;;;;24.30;20.93;;;;;;;;;;5014297;28;20225;-80
2023/02/13 09:30:57;;;;;;;24.63;21.20;;;;;;;;;;5032096;28;20231;-80
2023/02/13 09:33:23;;;;;;;24.77;20.27;;;;;;;;;;5029775;28;20318;-79
2023/02/13 09:35:49;;;;;;;28.20;22.07;;;;;;;;;;5039613;28;20231;-79
2023/02/13 09:38:14;;;;;;;24.47;21.73;;;;;;;;;;5007661;28;20705;-80
2023/02/13 09:40:46;;;;;;;23.30;20.70;;;;;;;;;;4995369;28;20271;-79
2023/02/13 09:43:27;;;;;;;24.00;21.07;;;;;;;;;;5009765;28;20336;-78
2023/02/13 09:45:55;;;;;;;23.43;20.93;;;;;;;;;;5021632;28;20235;-79
2023/02/13 09:48:28;;;;;;;24.23;21.63;;;;;;;;;;4994005;28;20592;-79
2023/02/13 09:50:53;;;;;;;26.07;21.27;;;;;;;;;;5002544;28;20244;-80
2023/02/13 09:53:21;;;;;;;28.73;21.63;;;;;;;;;;5024337;28;20245;-80
2023/02/13 09:55:54;;;;;;;26.90;22.23;;;;;;;;;;5008650;28;20289;-82
2023/02/13 09:58:46;;;;;;;27.47;22.20;;;;;;;;;;5025705;28;20227;-81
2023/02/13 10:01:22;;;;;;;25.03;22.33;;;;;;;;;;5027256;28;20509;-81
2023/02/13 10:04:01;;;;;;;25.83;21.87;;;;;;;;;;4974051;28;20224;-80
2023/02/13 10:06:31;;;;;;;25.27;21.43;;;;;;;;;;5020539;28;20232;-81
2023/02/13 10:09:12;;;;;;;29.43;24.13;;;;;;;;;;4998628;28;20227;-82
2023/02/13 10:12:13;;;;;;;32.23;23.27;;;;;;;;;;5012961;28;20296;-80
2023/02/13 10:15:19;;;;;;;29.20;26.00;;;;;;;;;;4992464;28;20257;-80
2023/02/13 10:17:45;;;;;;;27.57;23.10;;;;;;;;;;5022413;28;20271;-81
2023/02/13 10:20:30;;;;;;;29.90;25.80;;;;;;;;;;5021205;28;20251;-81
2023/02/13 10:23:00;;;;;;;28.90;25.03;;;;;;;;;;4994411;28;20307;-80
2023/02/13 10:25:27;;;;;;;29.73;25.53;;;;;;;;;;5020272;28;20220;-82
2023/02/13 10:28:14;;;;;;;30.97;26.90;;;;;;;;;;5011982;28;20637;-80
2023/02/13 10:30:56;;;;;;;30.23;24.63;;;;;;;;;;5025978;28;20228;-81
2023/02/13 10:33:51;;;;;;;32.30;26.07;;;;;;;;;;5028868;28;20224;-82
2023/02/13 10:36:27;;;;;;;27.27;24.30;;;;;;;;;;5022569;28;20274;-81
2023/02/13 10:39:20;;;;;;;27.33;23.80;;;;;;;;;;4996366;28;21127;-81
2023/02/13 10:41:57;;;;;;;32.87;25.27;;;;;;;;;;5041386;28;20316;-81
2023/02/13 10:44:55;;;;;;;29.27;25.33;;;;;;;;;;5036025;28;20791;-82
2023/02/13 10:47:55;;;;;;;29.50;24.57;;;;;;;;;;5061404;28;20244;-80
2023/02/13 10:50:31;;;;;;;27.60;24.80;;;;;;;;;;5058690;28;20663;-82
2023/02/13 10:53:18;;;;;;;30.97;25.87;;;;;;;;;;5012221;28;20234;-80
2023/02/13 10:56:03;;;;;;;26.17;23.53;;;;;;;;;;5011785;28;20225;-80
2023/02/13 10:59:01;;;;;;;25.83;23.23;;;;;;;;;;5035203;28;20621;-82
2023/02/13 11:01:37;;;;;;;27.03;24.30;;;;;;;;;;5053996;28;20581;-80
2023/02/13 11:04:10;;;;;;;27.10;23.90;;;;;;;;;;5031143;28;20249;-83
2023/02/13 11:06:37;;;;;;;26.03;23.27;;;;;;;;;;5003856;28;20229;-83
2023/02/13 11:09:05;;;;;;;25.67;22.97;;;;;;;;;;5007749;28;20215;-82
2023/02/13 11:11:39;;;;;;;24.70;22.07;;;;;;;;;;5038295;28;20721;-83
2023/02/13 11:14:23;;;;;;;27.50;23.60;;;;;;;;;;5001987;28;20644;-85
2023/02/13 11:16:56;;;;;;;28.37;23.30;;;;;;;;;;5038191;28;20226;-83
2023/02/13 11:19:31;;;;;;;25.93;23.27;;;;;;;;;;5049238;28;20717;-85
2023/02/13 11:22:00;;;;;;;24.50;21.87;;;;;;;;;;5041153;28;20272;-84
2023/02/13 11:24:26;;;;;;;23.87;21.30;;;;;;;;;;5009697;28;20269;-84
2023/02/13 11:27:11;;;;;;;24.70;21.97;;;;;;;;;;5029959;28;20219;-84
2023/02/13 11:29:39;;;;;;;26.13;23.10;;;;;;;;;;5013395;28;20287;-84
2023/02/13 11:32:31;;;;;;;23.67;21.13;;;;;;;;;;5012205;28;20581;-84
2023/02/13 11:34:57;;;;;;;22.83;20.43;;;;;;;;;;5053629;28;20298;-84
2023/02/13 11:37:28;;;;;;;22.40;20.10;;;;;;;;;;5004221;28;20236;-83
2023/02/13 11:39:55;;;;;;;22.53;20.33;;;;;;;;;;5051738;28;20259;-84
2023/02/13 11:42:30;;;;;;;22.30;20.00;;;;;;;;;;5035358;28;20223;-84
2023/02/13 11:45:01;;;;;;;21.43;19.27;;;;;;;;;;5024110;28;20250;-84
2023/02/13 11:47:36;;;;;;;20.53;18.37;;;;;;;;;;5022797;28;20224;-85
2023/02/13 11:50:02;;;;;;;19.87;17.80;;;;;;;;;;5040824;28;20331;-84
2023/02/13 11:52:30;;;;;;;20.30;18.23;;;;;;;;;;4997335;28;20222;-85
2023/02/13 11:55:23;;;;;;;20.57;18.43;;;;;;;;;;5015740;28;20779;-85
2023/02/13 11:58:04;;;;;;;21.87;19.57;;;;;;;;;;5036005;28;20228;-82
2023/02/13 12:00:38;;;;;;;23.20;20.90;;;;;;;;;;4996193;28;20232;-83
2023/02/13 12:03:29;;;;;;;23.37;20.93;;;;;;;;;;5019838;28;20218;-85
2023/02/13 12:06:04;;;;;;;22.37;20.13;;;;;;;;;;5001414;28;20777;-82
2023/02/13 12:08:30;;;;;;;22.27;20.03;;;;;;;;;;5033368;28;20254;-85
2023/02/13 12:11:01;;;;;;;21.93;19.93;;;;;;;;;;5032437;28;20224;-84
2023/02/13 12:13:32;;;;;;;23.37;21.10;;;;;;;;;;4993636;28;20220;-83
2023/02/13 12:16:11;;;;;;;21.07;19.07;;;;;;;;;;5015261;28;20228;-85
2023/02/13 12:18:41;;;;;;;22.77;20.57;;;;;;;;;;5046471;28;20224;-83
2023/02/13 12:21:23;;;;;;;22.17;19.87;;;;;;;;;;5029489;28;20653;-85
2023/02/13 12:24:02;;;;;;;21.77;19.67;;;;;;;;;;5022949;28;20572;-85
2023/02/13 12:26:31;;;;;;;22.47;20.20;;;;;;;;;;5054244;28;20215;-84
2023/02/13 12:29:18;;;;;;;23.67;21.27;;;;;;;;;;5038116;28;20220;-84
2023/02/13 12:32:17;;;;;;;21.20;18.97;;;;;;;;;;5034489;28;20224;-84
2023/02/13 12:35:03;;;;;;;24.43;20.17;;;;;;;;;;5016995;28;20215;-81
2023/02/13 12:37:51;;;;;;;24.93;21.27;;;;;;;;;;5066384;28;20224;-83
2023/02/13 12:40:24;;;;;;;21.67;19.57;;;;;;;;;;5032862;28;20271;-80
2023/02/13 12:43:23;;;;;;;21.70;19.53;;;;;;;;;;5059904;28;20224;-83
2023/02/13 12:46:01;;;;;;;20.93;18.73;;;;;;;;;;5038766;28;20240;-84
2023/02/13 12:48:51;;;;;;;21.77;19.40;;;;;;;;;;5019980;28;20251;-85
2023/02/13 12:51:19;;;;;;;20.60;18.57;;;;;;;;;;5050528;28;20240;-84
2023/02/13 12:54:11;;;;;;;21.03;18.93;;;;;;;;;;5072807;28;20227;-85
2023/02/13 12:56:39;;;;;;;21.43;19.23;;;;;;;;;;5036488;28;20225;-83
2023/02/13 12:59:39;;;;;;;21.13;19.00;;;;;;;;;;5072329;28;20723;-84
2023/02/13 13:02:25;;;;;;;20.80;18.60;;;;;;;;;;5025264;28;20706;-85
2023/02/13 13:05:16;;;;;;;22.10;19.33;;;;;;;;;;5037566;28;20220;-85
2023/02/13 13:08:00;;;;;;;21.57;19.37;;;;;;;;;;5058921;28;20235;-81
2023/02/13 13:10:34;;;;;;;20.93;18.87;;;;;;;;;;5039246;28;20234;-85
2023/02/13 13:13:33;;;;;;;21.67;19.47;;;;;;;;;;5024421;28;20231;-84
2023/02/13 13:15:58;;;;;;;20.53;18.53;;;;;;;;;;4985894;28;20251;-86
2023/02/13 13:18:36;;;;;;;20.43;18.33;;;;;;;;;;5073171;28;20262;-83
2023/02/13 13:21:10;;;;;;;21.33;19.30;;;;;;;;;;5033994;28;20227;-86
2023/02/13 13:23:44;;;;;;;20.20;18.20;;;;;;;;;;5043875;28;20914;-84
2023/02/13 13:26:23;;;;;;;20.17;18.07;;;;;;;;;;5059075;28;20225;-86
2023/02/13 13:28:53;;;;;;;19.87;17.87;;;;;;;;;;5051545;28;20647;-84
2023/02/13 13:31:24;;;;;;;20.87;18.67;;;;;;;;;;5002929;28;20237;-84
2023/02/13 13:33:52;;;;;;;20.20;18.13;;;;;;;;;;5004404;28;20208;-84
2023/02/13 13:36:30;;;;;;;19.50;17.60;;;;;;;;;;4995668;28;20295;-84
2023/02/13 13:39:24;;;;;;;20.17;18.07;;;;;;;;;;5022822;28;20307;-84
2023/02/13 13:42:01;;;;;;;22.50;20.13;;;;;;;;;;5032745;28;20220;-85
2023/02/13 13:44:35;;;;;;;25.77;23.13;;;;;;;;;;5053608;28;20283;-86
2023/02/13 13:47:06;;;;;;;21.10;18.73;;;;;;;;;;5067075;28;20226;-86
2023/02/13 13:49:49;;;;;;;20.17;17.77;;;;;;;;;;5047766;28;20216;-85
2023/02/13 13:52:23;;;;;;;21.03;18.83;;;;;;;;;;5019796;28;20224;-84
2023/02/13 13:54:52;;;;;;;18.53;16.67;;;;;;;;;;5036540;28;20269;-84
2023/02/13 13:57:38;;;;;;;19.83;17.47;;;;;;;;;;5028848;28;20221;-86
2023/02/13 14:00:09;;;;;;;20.97;18.87;;;;;;;;;;5030468;28;20224;-86
2023/02/13 14:02:38;;;;;;;21.57;17.80;;;;;;;;;;5028019;28;20253;-85
2023/02/13 14:05:17;;;;;;;22.13;17.77;;;;;;;;;;5011598;28;20592;-85
2023/02/13 14:07:43;;;;;;;20.93;17.67;;;;;;;;;;5008219;28;20221;-83
2023/02/13 14:10:20;;;;;;;19.83;17.83;;;;;;;;;;5030756;28;20223;-84
2023/02/13 14:12:55;;;;;;;19.70;17.70;;;;;;;;;;5025448;28;20219;-85
2023/02/13 14:15:33;;;;;;;19.60;17.50;;;;;;;;;;5059488;28;20342;-85
2023/02/13 14:18:20;;;;;;;20.30;18.10;;;;;;;;;;5055292;28;20244;-85
2023/02/13 14:20:49;;;;;;;22.50;20.30;;;;;;;;;;5012770;28;20582;-84
2023/02/13 14:23:31;;;;;;;24.90;20.63;;;;;;;;;;5020999;28;20582;-83
2023/02/13 14:26:32;;;;;;;22.70;20.40;;;;;;;;;;5019058;28;20732;-85
2023/02/13 14:29:08;;;;;;;23.40;21.00;;;;;;;;;;4998720;28;20227;-84
2023/02/13 14:31:56;;;;;;;24.50;21.90;;;;;;;;;;5026637;28;20224;-86
2023/02/13 14:34:29;;;;;;;25.90;23.03;;;;;;;;;;5000293;28;20221;-86
2023/02/13 14:37:11;;;;;;;40.13;29.93;;;;;;;;;;4995386;28;20316;-85
2023/02/13 14:39:40;;;;;;;65.53;44.17;;;;;;;;;;5023574;28;20240;-86
2023/02/13 14:42:26;;;;;;;31.10;26.07;;;;;;;;;;5045585;28;20224;-85
2023/02/13 14:44:54;;;;;;;31.07;27.73;;;;;;;;;;5040121;28;20703;-84
2023/02/13 14:47:35;;;;;;;28.00;24.87;;;;;;;;;;5026936;28;20227;-84
2023/02/13 14:50:01;;;;;;;27.63;24.77;;;;;;;;;;5027660;28;20219;-83
2023/02/13 14:52:34;;;;;;;28.03;24.90;;;;;;;;;;4992919;28;20251;-83
2023/02/13 14:55:04;;;;;;;28.13;25.13;;;;;;;;;;5015097;28;20247;-85
2023/02/13 14:57:33;;;;;;;28.20;25.10;;;;;;;;;;4997632;28;20248;-86
2023/02/13 15:00:02;;;;;;;28.23;25.27;;;;;;;;;;5000294;28;20228;-84
2023/02/13 15:02:34;;;;;;;28.83;24.90;;;;;;;;;;4999857;28;20228;-87
2023/02/13 15:05:07;;;;;;;28.27;25.27;;;;;;;;;;5048720;28;20594;-86
2023/02/13 15:07:36;;;;;;;27.63;24.67;;;;;;;;;;5025321;28;20225;-85
2023/02/13 15:10:17;;;;;;;33.07;25.83;;;;;;;;;;5017029;28;20217;-86
2023/02/13 15:12:42;;;;;;;29.20;24.83;;;;;;;;;;5037772;28;20224;-86
2023/02/13 15:15:25;;;;;;;32.23;25.87;;;;;;;;;;5001395;28;20291;-86
2023/02/13 15:17:53;;;;;;;26.50;23.63;;;;;;;;;;5008048;28;20216;-84
2023/02/13 15:20:26;;;;;;;26.03;23.23;;;;;;;;;;5018326;28;20228;-83
2023/02/13 15:22:52;;;;;;;27.13;24.33;;;;;;;;;;5022200;28;20254;-85
2023/02/13 15:25:41;;;;;;;27.37;23.67;;;;;;;;;;4980116;28;20220;-83
2023/02/13 15:28:14;;;;;;;26.43;22.37;;;;;;;;;;5018131;28;20227;-87
2023/02/13 15:30:50;;;;;;;28.23;23.13;;;;;;;;;;5038776;28;20232;-86
2023/02/13 15:33:18;;;;;;;26.23;23.50;;;;;;;;;;5048764;28;20228;-85